createdAt,value
2022-09-14T00:00:00.216Z,0
2022-09-14T00:05:00.206Z,0
2022-09-14T00:10:00.189Z,0
2022-09-14T00:15:00.160Z,0
2022-09-14T00:20:00.185Z,0
2022-09-14T00:25:00.164Z,0
2022-09-14T00:30:00.216Z,0
2022-09-14T00:35:00.185Z,0
2022-09-14T00:40:00.238Z,0
2022-09-14T00:45:00.176Z,0
2022-09-14T00:50:00.200Z,0
2022-09-14T00:55:00.159Z,0
2022-09-14T01:00:00.221Z,0
2022-09-14T01:05:00.188Z,0
2022-09-14T01:10:00.175Z,0
2022-09-14T01:15:00.167Z,0
2022-09-14T01:20:00.190Z,0
2022-09-14T01:25:00.193Z,0
2022-09-14T01:30:00.213Z,0
2022-09-14T01:35:00.184Z,0
2022-09-14T01:40:00.267Z,0
2022-09-14T01:45:00.185Z,0
2022-09-14T01:50:00.180Z,0
2022-09-14T01:55:00.180Z,0
2022-09-14T02:00:00.217Z,0
2022-09-14T02:05:00.170Z,0
2022-09-14T02:10:00.191Z,0
2022-09-14T02:15:00.189Z,0
2022-09-14T02:20:00.182Z,0
2022-09-14T02:25:00.168Z,0
2022-09-14T02:30:00.218Z,0
2022-09-14T02:35:00.174Z,0
2022-09-14T02:40:00.318Z,0
2022-09-14T02:45:00.176Z,0
2022-09-14T02:50:00.181Z,0
2022-09-14T02:55:00.198Z,0
2022-09-14T03:00:00.240Z,0
2022-09-14T03:05:00.276Z,0
2022-09-14T03:10:00.194Z,0
2022-09-14T03:15:00.234Z,0
2022-09-14T03:20:00.200Z,0
2022-09-14T03:25:00.192Z,0
2022-09-14T03:30:00.263Z,0
2022-09-14T03:35:00.190Z,0
2022-09-14T03:40:00.303Z,0
2022-09-14T03:45:00.225Z,0
2022-09-14T03:50:00.200Z,0
2022-09-14T03:55:00.191Z,0
2022-09-14T04:00:00.240Z,0
2022-09-14T04:05:00.174Z,0
2022-09-14T04:10:00.219Z,0
2022-09-14T04:15:00.161Z,0
2022-09-14T04:20:00.204Z,0
2022-09-14T04:25:00.197Z,0
2022-09-14T04:30:00.205Z,0
2022-09-14T04:35:00.226Z,0
2022-09-14T04:40:00.339Z,2
2022-09-14T04:45:00.213Z,3
2022-09-14T04:50:00.167Z,5
2022-09-14T04:55:00.210Z,9
2022-09-14T05:00:00.262Z,17
2022-09-14T05:05:00.208Z,30
2022-09-14T05:10:00.194Z,45
2022-09-14T05:15:00.208Z,75
2022-09-14T05:20:00.188Z,105
2022-09-14T05:25:00.181Z,173
2022-09-14T05:30:00.233Z,287
2022-09-14T05:35:00.191Z,399
2022-09-14T05:40:00.297Z,530
2022-09-14T05:45:00.204Z,596
2022-09-14T05:50:00.193Z,790
2022-09-14T05:55:00.181Z,1002
2022-09-14T06:00:00.262Z,1216
2022-09-14T06:05:00.316Z,1426
2022-09-14T06:10:00.169Z,1601
2022-09-14T06:15:00.236Z,1798
2022-09-14T06:20:04.355Z,1798
2022-09-14T06:25:00.173Z,2020
2022-09-14T06:30:00.195Z,2020
2022-09-14T06:35:00.188Z,2268
2022-09-14T06:40:00.266Z,2268
2022-09-14T06:45:00.163Z,2268
2022-09-14T06:50:00.201Z,2547
2022-09-14T06:55:00.172Z,3512
2022-09-14T07:00:00.196Z,3638
2022-09-14T07:05:00.175Z,3638
2022-09-14T07:10:00.190Z,3638
2022-09-14T07:15:00.172Z,4084
2022-09-14T07:20:00.200Z,4084
2022-09-14T07:25:00.175Z,2771
2022-09-14T07:30:00.209Z,2455
2022-09-14T07:35:00.178Z,3119
2022-09-14T07:40:00.265Z,3602
2022-09-14T07:45:00.180Z,4554
2022-09-14T07:50:00.179Z,4996
2022-09-14T07:55:00.274Z,5113
2022-09-14T08:00:00.247Z,4040
2022-09-14T08:05:00.256Z,3948
2022-09-14T08:10:00.315Z,3948
2022-09-14T08:15:00.285Z,3948
2022-09-14T08:20:00.200Z,3948
2022-09-14T08:25:00.266Z,4544
2022-09-14T08:30:00.307Z,4544
2022-09-14T08:35:00.172Z,5106
2022-09-14T08:40:00.294Z,5106
2022-09-14T08:45:00.210Z,4819
2022-09-14T08:50:00.336Z,4819
2022-09-14T08:55:00.242Z,4819
2022-09-14T09:00:00.235Z,5736
2022-09-14T09:05:00.197Z,6436
2022-09-14T09:10:00.235Z,6436
2022-09-14T09:15:00.226Z,6436
2022-09-14T09:20:00.204Z,6436
2022-09-14T09:25:00.182Z,6436
2022-09-14T09:30:00.185Z,6436
2022-09-14T09:35:00.193Z,6436
2022-09-14T09:40:00.259Z,5968
2022-09-14T09:45:03.329Z,5609
2022-09-14T09:50:00.169Z,5609
2022-09-14T09:55:00.168Z,5609
2022-09-14T10:00:00.205Z,6433
2022-09-14T10:05:00.223Z,7226
2022-09-14T10:10:00.220Z,8119
2022-09-14T10:15:00.195Z,8119
2022-09-14T10:20:00.184Z,8119
2022-09-14T10:25:00.213Z,8119
2022-09-14T10:30:00.204Z,8119
2022-09-14T10:35:00.305Z,8450
2022-09-14T10:40:00.304Z,8450
2022-09-14T10:45:00.201Z,9122
2022-09-14T10:50:00.198Z,9122
2022-09-14T10:55:00.272Z,9122
2022-09-14T11:00:00.245Z,8128
2022-09-14T11:05:00.185Z,7991
2022-09-14T11:10:00.187Z,7109
2022-09-14T11:15:00.199Z,7109
2022-09-14T11:20:00.200Z,8123
2022-09-14T11:25:00.207Z,8123
2022-09-14T11:30:00.240Z,8611
2022-09-14T11:35:00.202Z,9118
2022-09-14T11:40:00.324Z,9118
2022-09-14T11:45:00.363Z,10231
2022-09-14T11:50:00.156Z,10231
2022-09-14T11:55:00.180Z,10231
2022-09-14T12:00:00.200Z,10231
2022-09-14T12:05:00.182Z,10231
2022-09-14T12:10:00.195Z,10231
2022-09-14T12:15:00.174Z,10231
2022-09-14T12:20:00.200Z,10231
2022-09-14T12:25:00.183Z,10594
2022-09-14T12:30:00.214Z,10594
2022-09-14T12:35:00.272Z,11353
2022-09-14T12:40:00.368Z,12773
2022-09-14T12:45:00.229Z,12773
2022-09-14T12:50:00.202Z,16218
2022-09-14T12:55:00.193Z,18552
2022-09-14T13:00:00.256Z,21375
2022-09-14T13:05:00.281Z,44432
2022-09-14T13:10:00.250Z,23297
2022-09-14T13:15:00.256Z,19382
2022-09-14T13:20:00.248Z,20824
2022-09-14T13:25:00.243Z,20824
2022-09-14T13:30:00.533Z,20824
2022-09-14T13:35:00.281Z,20824
2022-09-14T13:40:00.368Z,20824
2022-09-14T13:45:00.277Z,20824
2022-09-14T13:50:00.257Z,20824
2022-09-14T13:55:00.232Z,35670
2022-09-14T14:00:00.295Z,58492
2022-09-14T14:05:00.164Z,56911
2022-09-14T14:10:00.212Z,63812
2022-09-14T14:15:00.195Z,66988
2022-09-14T14:20:00.272Z,19953
2022-09-14T14:25:13.708Z,20389
2022-09-14T14:30:00.229Z,74783
2022-09-14T14:35:00.167Z,24372
2022-09-14T14:40:00.310Z,17571
2022-09-14T14:45:00.357Z,29114
2022-09-14T14:50:00.466Z,16955
2022-09-14T14:55:01.303Z,54375
2022-09-14T15:00:00.549Z,48899
2022-09-14T15:05:00.220Z,59786
2022-09-14T15:10:00.321Z,70876
2022-09-14T15:15:00.222Z,19843
2022-09-14T15:20:00.338Z,17587
2022-09-14T15:25:00.218Z,10775
2022-09-14T15:30:00.493Z,13944
2022-09-14T15:35:00.224Z,17061
2022-09-14T15:40:00.496Z,25504
2022-09-14T15:45:00.242Z,43172
2022-09-14T15:50:00.296Z,63832
2022-09-14T15:55:00.281Z,56144
2022-09-14T16:00:00.274Z,10219
2022-09-14T16:05:00.315Z,9045
2022-09-14T16:10:00.324Z,8035
2022-09-14T16:15:00.224Z,5607
2022-09-14T16:20:00.220Z,4979
2022-09-14T16:25:00.205Z,4979
2022-09-14T18:10:00.296Z,39
2022-09-14T18:15:00.198Z,18
2022-09-14T18:20:00.191Z,11
2022-09-14T18:25:00.203Z,4
2022-09-14T18:30:00.213Z,4
2022-09-14T18:35:00.178Z,4
2022-09-14T18:40:00.295Z,4
2022-09-14T18:45:00.192Z,0
2022-09-14T18:50:00.228Z,0
2022-09-14T18:55:00.202Z,0
2022-09-14T19:00:00.228Z,0
2022-09-14T19:05:00.152Z,0
2022-09-14T19:10:00.193Z,0
2022-09-14T19:15:00.209Z,0
2022-09-14T19:20:00.206Z,0
2022-09-14T19:25:00.190Z,0
2022-09-14T19:30:00.202Z,0
2022-09-14T19:35:00.196Z,0
2022-09-14T19:40:00.330Z,0
2022-09-14T19:45:00.159Z,0
2022-09-14T19:50:00.201Z,0
2022-09-14T19:55:00.207Z,0
2022-09-14T20:00:00.260Z,0
2022-09-14T20:05:00.194Z,0
2022-09-14T20:10:00.190Z,0
2022-09-14T20:15:00.158Z,0
2022-09-14T20:20:00.181Z,0
2022-09-14T20:25:00.148Z,0
2022-09-14T20:30:00.208Z,0
2022-09-14T20:35:00.172Z,0
2022-09-14T20:40:00.282Z,0
2022-09-14T20:45:00.175Z,0
2022-09-14T20:50:00.200Z,0
2022-09-14T20:55:00.172Z,0
2022-09-14T21:00:00.280Z,0
2022-09-14T21:05:00.174Z,0
2022-09-14T21:10:00.206Z,0
2022-09-14T21:15:00.200Z,0
2022-09-14T21:20:00.184Z,0
2022-09-14T21:25:00.180Z,0
2022-09-14T21:30:00.208Z,0
2022-09-14T21:35:00.211Z,0
2022-09-14T21:40:00.261Z,0
2022-09-14T21:45:00.184Z,0
2022-09-14T21:50:00.177Z,0
2022-09-14T21:55:00.206Z,0
2022-09-14T22:00:00.254Z,0
2022-09-14T22:05:00.155Z,0
2022-09-14T22:10:00.191Z,0
2022-09-14T22:15:00.177Z,0
2022-09-14T22:20:00.198Z,0
2022-09-14T22:25:00.181Z,0
2022-09-14T22:30:00.192Z,0
2022-09-14T22:35:00.175Z,0
2022-09-14T22:40:00.291Z,0
2022-09-14T22:45:00.183Z,0
2022-09-14T22:50:00.210Z,0
2022-09-14T22:55:00.180Z,0
2022-09-14T23:00:00.251Z,0
2022-09-14T23:05:00.176Z,0
2022-09-14T23:10:00.188Z,0
2022-09-14T23:15:00.192Z,0
2022-09-14T23:20:00.152Z,0
2022-09-14T23:25:00.166Z,0
2022-09-14T23:30:00.170Z,0
2022-09-14T23:35:00.191Z,0
2022-09-14T23:40:00.260Z,0
2022-09-14T23:45:00.167Z,0
2022-09-14T23:50:00.174Z,0
2022-09-14T23:55:00.246Z,0
